sensor_id;sensor_type;location;lat;lon;timestamp;pressure;altitude;pressure_sealevel;temperature;humidity
80853;BME280;70270;43.434;28.338;2023-08-30T00:02:32;99117.97;;;27.18;77.23
80853;BME280;70270;43.434;28.338;2023-08-30T00:05:16;99110.41;;;27.27;76.81
80853;BME280;70270;43.434;28.338;2023-08-30T00:08:01;99122.69;;;27.26;76.68
80853;BME280;70270;43.434;28.338;2023-08-30T00:10:48;99102.78;;;27.15;76.80
80853;BME280;70270;43.434;28.338;2023-08-30T00:13:32;99116.06;;;27.39;76.48
80853;BME280;70270;43.434;28.338;2023-08-30T00:16:17;99106.75;;;27.35;76.71
80853;BME280;70270;43.434;28.338;2023-08-30T00:19:02;99050.34;;;26.96;76.62
80853;BME280;70270;43.434;28.338;2023-08-30T00:21:48;98980.13;;;26.70;75.61
80853;BME280;70270;43.434;28.338;2023-08-30T00:24:34;99124.69;;;27.46;75.71
80853;BME280;70270;43.434;28.338;2023-08-30T00:27:18;99029.06;;;27.00;75.49
80853;BME280;70270;43.434;28.338;2023-08-30T00:30:05;99108.78;;;27.55;75.58
80853;BME280;70270;43.434;28.338;2023-08-30T00:32:52;99114.97;;;27.61;75.51
80853;BME280;70270;43.434;28.338;2023-08-30T00:35:41;99035.47;;;27.22;75.26
80853;BME280;70270;43.434;28.338;2023-08-30T00:38:27;99105.75;;;27.69;75.38
80853;BME280;70270;43.434;28.338;2023-08-30T00:41:12;99034.78;;;27.25;75.26
80853;BME280;70270;43.434;28.338;2023-08-30T00:43:57;99086.66;;;27.59;75.33
80853;BME280;70270;43.434;28.338;2023-08-30T00:46:42;99104.94;;;27.68;75.39
80853;BME280;70270;43.434;28.338;2023-08-30T00:49:26;99081.97;;;27.51;75.53
80853;BME280;70270;43.434;28.338;2023-08-30T00:52:11;99096.78;;;27.63;75.86
80853;BME280;70270;43.434;28.338;2023-08-30T00:54:57;99079.81;;;27.56;75.31
80853;BME280;70270;43.434;28.338;2023-08-30T00:57:41;99061.66;;;27.21;76.51
80853;BME280;70270;43.434;28.338;2023-08-30T01:00:26;99103.78;;;27.40;76.56
80853;BME280;70270;43.434;28.338;2023-08-30T01:03:14;99089.78;;;27.28;76.86
80853;BME280;70270;43.434;28.338;2023-08-30T01:05:59;99099.56;;;27.34;76.92
80853;BME280;70270;43.434;28.338;2023-08-30T01:08:47;99102.19;;;27.30;76.88
80853;BME280;70270;43.434;28.338;2023-08-30T01:12:04;99102.88;;;27.27;76.76
80853;BME280;70270;43.434;28.338;2023-08-30T01:17:42;99006.97;;;26.66;76.17
80853;BME280;70270;43.434;28.338;2023-08-30T01:20:33;99101.28;;;27.18;76.78
80853;BME280;70270;43.434;28.338;2023-08-30T01:23:29;99111.38;;;27.31;76.13
80853;BME280;70270;43.434;28.338;2023-08-30T01:29:43;99118.84;;;27.39;75.75
80853;BME280;70270;43.434;28.338;2023-08-30T01:32:29;99093.91;;;27.22;76.02
80853;BME280;70270;43.434;28.338;2023-08-30T01:35:19;99113.38;;;27.22;75.92
80853;BME280;70270;43.434;28.338;2023-08-30T01:38:06;99105.31;;;27.29;75.88
80853;BME280;70270;43.434;28.338;2023-08-30T01:40:53;99122.53;;;27.60;74.60
80853;BME280;70270;43.434;28.338;2023-08-30T01:43:39;99123.75;;;27.71;74.39
80853;BME280;70270;43.434;28.338;2023-08-30T01:46:25;99110.34;;;27.65;74.18
80853;BME280;70270;43.434;28.338;2023-08-30T01:49:10;99122.31;;;27.86;73.82
80853;BME280;70270;43.434;28.338;2023-08-30T01:51:57;99122.66;;;27.84;73.35
80853;BME280;70270;43.434;28.338;2023-08-30T01:54:43;99125.72;;;27.91;73.35
80853;BME280;70270;43.434;28.338;2023-08-30T01:57:29;99115.81;;;28.03;72.82
80853;BME280;70270;43.434;28.338;2023-08-30T02:00:14;99033.78;;;27.59;72.29
80853;BME280;70270;43.434;28.338;2023-08-30T02:03:12;99045.94;;;27.75;71.89
80853;BME280;70270;43.434;28.338;2023-08-30T02:06:11;99086.88;;;28.16;71.66
80853;BME280;70270;43.434;28.338;2023-08-30T02:09:03;99101.56;;;28.37;71.13
80853;BME280;70270;43.434;28.338;2023-08-30T02:11:54;99149.25;;;28.44;70.99
80853;BME280;70270;43.434;28.338;2023-08-30T02:14:44;99113.25;;;28.51;70.58
80853;BME280;70270;43.434;28.338;2023-08-30T02:17:30;99109.56;;;28.59;69.89
80853;BME280;70270;43.434;28.338;2023-08-30T02:20:16;99025.59;;;28.16;69.43
80853;BME280;70270;43.434;28.338;2023-08-30T02:23:01;99117.00;;;28.67;69.81
80853;BME280;70270;43.434;28.338;2023-08-30T02:25:46;99116.06;;;28.63;69.87
80853;BME280;70270;43.434;28.338;2023-08-30T02:28:34;99113.41;;;28.67;69.32
80853;BME280;70270;43.434;28.338;2023-08-30T02:31:19;99109.78;;;28.66;69.53
80853;BME280;70270;43.434;28.338;2023-08-30T02:34:03;99107.97;;;28.70;69.44
80853;BME280;70270;43.434;28.338;2023-08-30T02:36:48;99104.50;;;28.73;69.36
80853;BME280;70270;43.434;28.338;2023-08-30T02:39:32;99100.09;;;28.72;69.15
80853;BME280;70270;43.434;28.338;2023-08-30T02:42:21;99108.47;;;28.72;69.23
80853;BME280;70270;43.434;28.338;2023-08-30T02:45:06;99111.91;;;28.69;69.07
80853;BME280;70270;43.434;28.338;2023-08-30T02:47:55;99111.59;;;28.71;69.12
80853;BME280;70270;43.434;28.338;2023-08-30T02:50:44;99105.78;;;28.76;68.63
80853;BME280;70270;43.434;28.338;2023-08-30T02:53:28;99107.97;;;28.70;68.84
80853;BME280;70270;43.434;28.338;2023-08-30T02:56:13;99102.13;;;28.63;68.80
80853;BME280;70270;43.434;28.338;2023-08-30T02:58:58;99109.63;;;28.71;68.64
80853;BME280;70270;43.434;28.338;2023-08-30T03:01:45;99104.97;;;28.75;68.53
80853;BME280;70270;43.434;28.338;2023-08-30T03:04:35;99114.38;;;28.71;68.66
80853;BME280;70270;43.434;28.338;2023-08-30T03:07:22;99083.53;;;28.55;68.47
80853;BME280;70270;43.434;28.338;2023-08-30T03:10:08;99115.31;;;28.75;68.41
80853;BME280;70270;43.434;28.338;2023-08-30T03:12:54;99109.41;;;28.76;68.24
80853;BME280;70270;43.434;28.338;2023-08-30T03:15:39;99111.72;;;28.74;67.70
80853;BME280;70270;43.434;28.338;2023-08-30T03:18:24;99110.78;;;28.70;68.16
80853;BME280;70270;43.434;28.338;2023-08-30T03:21:09;99100.97;;;28.64;68.33
80853;BME280;70270;43.434;28.338;2023-08-30T03:23:54;99076.94;;;28.27;68.82
80853;BME280;70270;43.434;28.338;2023-08-30T03:26:38;99105.13;;;28.58;68.85
80853;BME280;70270;43.434;28.338;2023-08-30T03:29:26;99093.84;;;28.55;68.74
80853;BME280;70270;43.434;28.338;2023-08-30T03:32:15;99103.03;;;28.55;68.65
80853;BME280;70270;43.434;28.338;2023-08-30T03:35:03;99096.31;;;28.56;68.66
80853;BME280;70270;43.434;28.338;2023-08-30T03:37:48;99112.13;;;28.64;68.50
80853;BME280;70270;43.434;28.338;2023-08-30T03:40:35;99110.00;;;28.61;68.79
80853;BME280;70270;43.434;28.338;2023-08-30T03:43:22;99108.53;;;28.64;68.67
80853;BME280;70270;43.434;28.338;2023-08-30T03:46:07;99075.56;;;28.33;68.35
80853;BME280;70270;43.434;28.338;2023-08-30T03:48:53;99122.59;;;28.67;68.18
80853;BME280;70270;43.434;28.338;2023-08-30T03:51:38;99056.41;;;28.31;68.40
80853;BME280;70270;43.434;28.338;2023-08-30T03:54:23;98980.63;;;27.84;68.16
80853;BME280;70270;43.434;28.338;2023-08-30T03:57:07;99123.06;;;28.69;68.12
80853;BME280;70270;43.434;28.338;2023-08-30T03:59:52;99107.16;;;28.70;68.07
80853;BME280;70270;43.434;28.338;2023-08-30T04:02:37;99006.16;;;28.07;67.89
80853;BME280;70270;43.434;28.338;2023-08-30T04:05:22;99120.31;;;28.81;67.75
80853;BME280;70270;43.434;28.338;2023-08-30T04:08:09;99128.34;;;28.83;67.58
80853;BME280;70270;43.434;28.338;2023-08-30T04:10:54;99131.47;;;28.81;67.50
80853;BME280;70270;43.434;28.338;2023-08-30T04:13:38;99138.09;;;28.89;66.80
80853;BME280;70270;43.434;28.338;2023-08-30T04:16:23;99139.84;;;28.94;66.72
80853;BME280;70270;43.434;28.338;2023-08-30T04:19:08;99135.09;;;28.94;66.21
80853;BME280;70270;43.434;28.338;2023-08-30T04:21:52;99144.06;;;29.00;65.77
80853;BME280;70270;43.434;28.338;2023-08-30T04:24:37;99150.69;;;29.07;65.60
80853;BME280;70270;43.434;28.338;2023-08-30T04:27:24;99149.06;;;29.06;65.66
80853;BME280;70270;43.434;28.338;2023-08-30T04:30:10;99142.00;;;29.09;66.13
80853;BME280;70270;43.434;28.338;2023-08-30T04:32:55;99151.53;;;29.08;65.63
80853;BME280;70270;43.434;28.338;2023-08-30T04:35:40;99161.53;;;29.09;65.85
80853;BME280;70270;43.434;28.338;2023-08-30T04:38:25;99139.44;;;29.04;65.31
80853;BME280;70270;43.434;28.338;2023-08-30T04:41:10;99156.53;;;29.26;65.18
80853;BME280;70270;43.434;28.338;2023-08-30T04:43:55;99068.50;;;28.80;65.09
80853;BME280;70270;43.434;28.338;2023-08-30T04:46:42;99145.28;;;29.47;63.76
80853;BME280;70270;43.434;28.338;2023-08-30T04:49:27;99070.59;;;28.96;63.69
80853;BME280;70270;43.434;28.338;2023-08-30T04:52:15;99093.16;;;29.15;63.03
80853;BME280;70270;43.434;28.338;2023-08-30T04:54:59;99150.25;;;29.66;62.45
80853;BME280;70270;43.434;28.338;2023-08-30T04:57:45;99154.09;;;29.73;62.33
80853;BME280;70270;43.434;28.338;2023-08-30T05:00:34;99153.63;;;29.71;62.08
80853;BME280;70270;43.434;28.338;2023-08-30T05:03:19;99162.97;;;29.88;62.14
80853;BME280;70270;43.434;28.338;2023-08-30T05:06:03;99165.50;;;30.05;60.93
80853;BME280;70270;43.434;28.338;2023-08-30T05:08:51;99151.84;;;30.15;60.70
80853;BME280;70270;43.434;28.338;2023-08-30T05:11:36;99169.41;;;30.16;60.95
80853;BME280;70270;43.434;28.338;2023-08-30T05:14:22;99151.72;;;30.12;60.95
80853;BME280;70270;43.434;28.338;2023-08-30T05:17:07;99161.72;;;30.25;60.29
80853;BME280;70270;43.434;28.338;2023-08-30T05:19:52;99157.94;;;30.33;60.60
80853;BME280;70270;43.434;28.338;2023-08-30T05:22:36;99132.59;;;30.14;61.13
80853;BME280;70270;43.434;28.338;2023-08-30T05:25:21;99168.25;;;30.17;60.31
80853;BME280;70270;43.434;28.338;2023-08-30T05:28:05;99159.63;;;30.10;60.16
80853;BME280;70270;43.434;28.338;2023-08-30T05:30:50;99139.06;;;29.78;60.79
80853;BME280;70270;43.434;28.338;2023-08-30T05:34:04;99156.09;;;29.73;60.33
80853;BME280;70270;43.434;28.338;2023-08-30T05:36:48;99135.16;;;29.31;60.95
80853;BME280;70270;43.434;28.338;2023-08-30T05:39:50;99142.16;;;29.37;60.27
80853;BME280;70270;43.434;28.338;2023-08-30T05:42:35;99158.41;;;29.59;59.88
80853;BME280;70270;43.434;28.338;2023-08-30T05:45:19;98944.31;;;28.14;59.98
80853;BME280;70270;43.434;28.338;2023-08-30T05:48:08;99164.00;;;29.71;59.94
80853;BME280;70270;43.434;28.338;2023-08-30T05:50:53;99158.19;;;29.88;59.03
80853;BME280;70270;43.434;28.338;2023-08-30T05:53:41;99166.44;;;29.97;58.78
80853;BME280;70270;43.434;28.338;2023-08-30T05:56:26;99104.75;;;29.17;58.95
80853;BME280;70270;43.434;28.338;2023-08-30T05:59:13;99171.09;;;29.68;57.81
80853;BME280;70270;43.434;28.338;2023-08-30T06:01:58;99153.41;;;29.89;58.02
80853;BME280;70270;43.434;28.338;2023-08-30T06:04:43;99159.56;;;29.82;58.24
80853;BME280;70270;43.434;28.338;2023-08-30T06:07:29;99168.75;;;29.95;57.95
80853;BME280;70270;43.434;28.338;2023-08-30T06:10:14;99166.75;;;30.07;57.99
80853;BME280;70270;43.434;28.338;2023-08-30T06:13:00;99113.22;;;29.81;57.70
80853;BME280;70270;43.434;28.338;2023-08-30T06:15:50;99166.06;;;30.38;56.39
80853;BME280;70270;43.434;28.338;2023-08-30T06:18:34;99166.59;;;30.28;56.84
80853;BME280;70270;43.434;28.338;2023-08-30T06:21:21;99156.41;;;30.36;56.25
80853;BME280;70270;43.434;28.338;2023-08-30T06:24:06;99173.88;;;30.05;54.28
80853;BME280;70270;43.434;28.338;2023-08-30T06:26:53;99163.16;;;29.95;55.58
80853;BME280;70270;43.434;28.338;2023-08-30T06:29:39;99171.72;;;30.14;55.03
80853;BME280;70270;43.434;28.338;2023-08-30T06:32:24;99150.81;;;30.08;54.65
80853;BME280;70270;43.434;28.338;2023-08-30T06:35:09;99172.13;;;30.52;54.18
80853;BME280;70270;43.434;28.338;2023-08-30T06:37:54;99176.16;;;30.55;53.56
80853;BME280;70270;43.434;28.338;2023-08-30T06:40:44;99176.16;;;30.55;54.26
80853;BME280;70270;43.434;28.338;2023-08-30T06:43:29;99088.34;;;29.76;55.00
80853;BME280;70270;43.434;28.338;2023-08-30T06:46:14;99098.56;;;29.96;55.20
80853;BME280;70270;43.434;28.338;2023-08-30T06:48:59;99149.75;;;30.40;54.07
80853;BME280;70270;43.434;28.338;2023-08-30T06:51:46;99178.81;;;30.63;53.24
80853;BME280;70270;43.434;28.338;2023-08-30T06:54:34;99178.09;;;30.66;53.83
80853;BME280;70270;43.434;28.338;2023-08-30T06:57:22;99118.91;;;30.37;55.25
80853;BME280;70270;43.434;28.338;2023-08-30T07:00:10;99167.72;;;30.67;54.56
80853;BME280;70270;43.434;28.338;2023-08-30T07:02:55;99181.03;;;30.58;55.08
80853;BME280;70270;43.434;28.338;2023-08-30T07:05:43;99163.44;;;30.17;55.78
80853;BME280;70270;43.434;28.338;2023-08-30T07:08:28;99188.38;;;30.62;54.67
80853;BME280;70270;43.434;28.338;2023-08-30T07:11:12;99189.47;;;30.46;54.25
80853;BME280;70270;43.434;28.338;2023-08-30T07:13:57;99193.59;;;30.36;53.46
80853;BME280;70270;43.434;28.338;2023-08-30T07:16:44;99192.47;;;30.65;52.95
80853;BME280;70270;43.434;28.338;2023-08-30T07:19:29;99172.88;;;30.25;55.09
80853;BME280;70270;43.434;28.338;2023-08-30T07:22:16;99100.41;;;29.40;56.26
80853;BME280;70270;43.434;28.338;2023-08-30T07:25:01;99196.34;;;30.08;56.57
80853;BME280;70270;43.434;28.338;2023-08-30T07:27:49;99200.16;;;30.16;54.30
80853;BME280;70270;43.434;28.338;2023-08-30T07:30:36;99193.41;;;30.17;55.12
80853;BME280;70270;43.434;28.338;2023-08-30T07:33:27;99099.91;;;29.50;55.65
80853;BME280;70270;43.434;28.338;2023-08-30T07:36:11;99179.72;;;29.75;55.20
80853;BME280;70270;43.434;28.338;2023-08-30T07:38:59;99193.88;;;30.07;55.68
80853;BME280;70270;43.434;28.338;2023-08-30T07:41:44;99201.84;;;29.93;54.39
80853;BME280;70270;43.434;28.338;2023-08-30T07:44:32;99200.69;;;30.34;54.63
80853;BME280;70270;43.434;28.338;2023-08-30T07:47:21;99190.50;;;30.41;54.81
80853;BME280;70270;43.434;28.338;2023-08-30T07:50:06;99201.94;;;30.76;53.85
80853;BME280;70270;43.434;28.338;2023-08-30T07:52:53;99196.09;;;30.53;53.64
80853;BME280;70270;43.434;28.338;2023-08-30T07:55:38;99187.22;;;30.24;53.51
80853;BME280;70270;43.434;28.338;2023-08-30T07:58:22;99119.28;;;29.95;55.47
80853;BME280;70270;43.434;28.338;2023-08-30T08:01:09;99198.63;;;30.58;53.57
80853;BME280;70270;43.434;28.338;2023-08-30T08:03:56;99190.81;;;30.64;54.78
80853;BME280;70270;43.434;28.338;2023-08-30T08:06:41;99209.72;;;30.83;52.40
80853;BME280;70270;43.434;28.338;2023-08-30T08:09:28;99202.41;;;30.50;53.53
80853;BME280;70270;43.434;28.338;2023-08-30T08:12:12;99201.91;;;30.60;55.87
80853;BME280;70270;43.434;28.338;2023-08-30T08:14:57;99170.56;;;30.83;54.27
80853;BME280;70270;43.434;28.338;2023-08-30T08:17:41;99215.94;;;30.76;55.24
80853;BME280;70270;43.434;28.338;2023-08-30T08:20:26;99202.13;;;31.11;51.79
80853;BME280;70270;43.434;28.338;2023-08-30T08:23:10;99223.56;;;30.91;52.68
80853;BME280;70270;43.434;28.338;2023-08-30T08:25:59;99220.78;;;30.63;54.46
80853;BME280;70270;43.434;28.338;2023-08-30T08:28:44;99123.03;;;29.87;55.28
80853;BME280;70270;43.434;28.338;2023-08-30T08:31:28;99209.47;;;30.20;55.42
80853;BME280;70270;43.434;28.338;2023-08-30T08:34:13;99191.09;;;29.83;57.34
80853;BME280;70270;43.434;28.338;2023-08-30T08:36:58;99214.38;;;29.99;58.37
80853;BME280;70270;43.434;28.338;2023-08-30T08:39:45;99182.03;;;29.73;60.43
80853;BME280;70270;43.434;28.338;2023-08-30T08:42:30;99193.31;;;29.89;59.80
80853;BME280;70270;43.434;28.338;2023-08-30T08:45:16;99125.91;;;29.79;57.79
80853;BME280;70270;43.434;28.338;2023-08-30T08:48:03;99189.50;;;30.34;56.27
80853;BME280;70270;43.434;28.338;2023-08-30T08:50:49;99195.00;;;30.18;58.27
80853;BME280;70270;43.434;28.338;2023-08-30T08:53:33;99189.97;;;30.48;56.47
80853;BME280;70270;43.434;28.338;2023-08-30T08:56:19;99199.16;;;30.48;57.66
80853;BME280;70270;43.434;28.338;2023-08-30T08:59:05;99200.81;;;30.37;56.61
80853;BME280;70270;43.434;28.338;2023-08-30T09:01:53;99189.13;;;30.47;57.24
80853;BME280;70270;43.434;28.338;2023-08-30T09:04:40;99187.69;;;30.53;55.56
80853;BME280;70270;43.434;28.338;2023-08-30T09:07:27;99192.75;;;29.96;55.83
80853;BME280;70270;43.434;28.338;2023-08-30T09:10:14;99186.25;;;30.32;54.60
80853;BME280;70270;43.434;28.338;2023-08-30T09:13:01;99189.88;;;30.32;57.03
80853;BME280;70270;43.434;28.338;2023-08-30T09:15:48;99187.31;;;30.67;52.86
80853;BME280;70270;43.434;28.338;2023-08-30T09:18:33;99190.97;;;30.55;55.80
80853;BME280;70270;43.434;28.338;2023-08-30T09:21:17;99183.47;;;30.32;54.15
80853;BME280;70270;43.434;28.338;2023-08-30T09:24:06;99128.84;;;30.22;53.61
80853;BME280;70270;43.434;28.338;2023-08-30T09:26:52;99179.53;;;30.60;55.51
80853;BME280;70270;43.434;28.338;2023-08-30T09:29:37;99191.94;;;30.47;55.56
80853;BME280;70270;43.434;28.338;2023-08-30T09:32:22;99191.47;;;30.45;53.33
80853;BME280;70270;43.434;28.338;2023-08-30T09:35:07;99145.56;;;30.34;54.97
80853;BME280;70270;43.434;28.338;2023-08-30T09:37:52;99183.94;;;30.21;58.29
80853;BME280;70270;43.434;28.338;2023-08-30T09:40:36;99183.94;;;30.21;57.27
80853;BME280;70270;43.434;28.338;2023-08-30T09:43:21;99178.34;;;30.21;56.89
80853;BME280;70270;43.434;28.338;2023-08-30T09:46:06;99108.94;;;29.96;55.80
80853;BME280;70270;43.434;28.338;2023-08-30T09:48:50;99180.00;;;30.78;55.54
80853;BME280;70270;43.434;28.338;2023-08-30T09:51:35;99143.41;;;30.28;54.80
80853;BME280;70270;43.434;28.338;2023-08-30T09:54:27;99129.28;;;30.36;56.00
80853;BME280;70270;43.434;28.338;2023-08-30T09:57:17;99090.69;;;30.14;55.02
80853;BME280;70270;43.434;28.338;2023-08-30T10:00:02;99177.94;;;30.75;56.12
80853;BME280;70270;43.434;28.338;2023-08-30T10:02:49;99177.91;;;30.59;56.76
80853;BME280;70270;43.434;28.338;2023-08-30T10:05:35;99165.69;;;30.52;56.59
80853;BME280;70270;43.434;28.338;2023-08-30T10:08:25;99165.69;;;30.80;55.74
80853;BME280;70270;43.434;28.338;2023-08-30T10:11:20;99159.78;;;31.28;54.16
80853;BME280;70270;43.434;28.338;2023-08-30T10:14:06;99161.75;;;31.43;53.34
80853;BME280;70270;43.434;28.338;2023-08-30T10:17:01;99163.75;;;31.27;53.68
80853;BME280;70270;43.434;28.338;2023-08-30T10:19:49;99167.47;;;30.72;55.61
80853;BME280;70270;43.434;28.338;2023-08-30T10:22:39;99094.44;;;30.06;55.90
80853;BME280;70270;43.434;28.338;2023-08-30T10:25:27;99173.09;;;30.44;56.80
80853;BME280;70270;43.434;28.338;2023-08-30T10:28:14;99062.53;;;29.67;58.24
80853;BME280;70270;43.434;28.338;2023-08-30T10:31:00;99161.28;;;30.11;56.60
80853;BME280;70270;43.434;28.338;2023-08-30T10:33:54;99163.81;;;30.56;56.12
80853;BME280;70270;43.434;28.338;2023-08-30T10:36:41;99165.47;;;30.57;55.34
80853;BME280;70270;43.434;28.338;2023-08-30T10:39:39;99151.66;;;30.64;55.14
80853;BME280;70270;43.434;28.338;2023-08-30T10:42:25;99169.47;;;30.44;56.69
80853;BME280;70270;43.434;28.338;2023-08-30T10:45:09;99180.50;;;30.52;56.16
80853;BME280;70270;43.434;28.338;2023-08-30T10:47:55;99170.56;;;30.15;58.02
80853;BME280;70270;43.434;28.338;2023-08-30T10:50:41;99113.00;;;29.86;57.86
80853;BME280;70270;43.434;28.338;2023-08-30T10:53:31;99078.44;;;29.79;57.23
80853;BME280;70270;43.434;28.338;2023-08-30T10:56:16;99153.97;;;30.34;56.92
80853;BME280;70270;43.434;28.338;2023-08-30T10:59:02;99159.44;;;29.79;58.42
80853;BME280;70270;43.434;28.338;2023-08-30T11:01:53;99169.34;;;30.40;57.00
80853;BME280;70270;43.434;28.338;2023-08-30T11:04:42;99155.00;;;30.70;56.51
80853;BME280;70270;43.434;28.338;2023-08-30T11:07:28;99142.56;;;30.83;55.79
80853;BME280;70270;43.434;28.338;2023-08-30T11:10:13;99175.88;;;30.88;56.59
80853;BME280;70270;43.434;28.338;2023-08-30T11:12:58;99159.78;;;31.28;55.67
80853;BME280;70270;43.434;28.338;2023-08-30T11:15:43;99155.19;;;31.04;55.38
80853;BME280;70270;43.434;28.338;2023-08-30T11:18:28;99159.00;;;30.69;56.44
80853;BME280;70270;43.434;28.338;2023-08-30T11:21:13;99134.88;;;30.36;57.56
80853;BME280;70270;43.434;28.338;2023-08-30T11:23:58;99147.88;;;30.16;57.46
80853;BME280;70270;43.434;28.338;2023-08-30T11:26:43;99143.13;;;30.45;56.70
80853;BME280;70270;43.434;28.338;2023-08-30T11:29:27;99148.53;;;30.26;56.77
80853;BME280;70270;43.434;28.338;2023-08-30T11:32:12;99132.00;;;30.60;56.43
80853;BME280;70270;43.434;28.338;2023-08-30T11:34:57;99151.16;;;30.46;56.95
80853;BME280;70270;43.434;28.338;2023-08-30T11:37:44;99130.66;;;30.86;55.39
80853;BME280;70270;43.434;28.338;2023-08-30T11:40:28;99131.59;;;30.34;55.40
80853;BME280;70270;43.434;28.338;2023-08-30T11:43:15;99136.69;;;30.72;57.37
80853;BME280;70270;43.434;28.338;2023-08-30T11:45:59;99144.63;;;30.42;56.97
80853;BME280;70270;43.434;28.338;2023-08-30T11:48:45;99134.50;;;30.65;56.06
80853;BME280;70270;43.434;28.338;2023-08-30T11:51:30;99141.69;;;30.94;56.06
80853;BME280;70270;43.434;28.338;2023-08-30T11:54:15;99140.09;;;30.65;56.83
80853;BME280;70270;43.434;28.338;2023-08-30T11:57:03;99122.69;;;30.56;55.17
80853;BME280;70270;43.434;28.338;2023-08-30T11:59:48;99132.88;;;30.09;56.56
80853;BME280;70270;43.434;28.338;2023-08-30T12:02:34;99127.94;;;30.18;56.75
80853;BME280;70270;43.434;28.338;2023-08-30T12:05:19;99122.97;;;30.67;55.35
80853;BME280;70270;43.434;28.338;2023-08-30T12:08:04;99123.63;;;30.92;55.18
80853;BME280;70270;43.434;28.338;2023-08-30T12:10:49;99118.00;;;30.60;56.75
80853;BME280;70270;43.434;28.338;2023-08-30T12:13:34;99100.88;;;30.78;56.34
80853;BME280;70270;43.434;28.338;2023-08-30T12:16:18;99014.81;;;30.28;55.95
80853;BME280;70270;43.434;28.338;2023-08-30T12:19:11;99092.78;;;31.04;55.33
80853;BME280;70270;43.434;28.338;2023-08-30T12:22:03;99109.53;;;30.73;55.85
80853;BME280;70270;43.434;28.338;2023-08-30T12:24:48;99097.00;;;30.82;55.26
80853;BME280;70270;43.434;28.338;2023-08-30T12:27:39;99093.28;;;30.94;53.83
80853;BME280;70270;43.434;28.338;2023-08-30T12:30:23;99109.22;;;30.46;56.60
80853;BME280;70270;43.434;28.338;2023-08-30T12:33:08;99110.28;;;30.02;57.69
80853;BME280;70270;43.434;28.338;2023-08-30T12:35:57;99012.00;;;30.12;55.91
80853;BME280;70270;43.434;28.338;2023-08-30T12:38:41;99098.31;;;31.00;53.33
80853;BME280;70270;43.434;28.338;2023-08-30T12:41:28;99096.72;;;30.72;54.61
80853;BME280;70270;43.434;28.338;2023-08-30T12:44:13;99086.25;;;30.69;54.08
80853;BME280;70270;43.434;28.338;2023-08-30T12:46:57;99107.75;;;30.96;55.28
80853;BME280;70270;43.434;28.338;2023-08-30T12:49:42;99100.28;;;31.16;53.83
80853;BME280;70270;43.434;28.338;2023-08-30T12:52:27;99022.91;;;30.17;56.11
80853;BME280;70270;43.434;28.338;2023-08-30T12:55:11;99095.66;;;30.76;56.20
80853;BME280;70270;43.434;28.338;2023-08-30T12:57:56;99005.03;;;30.49;55.21
80853;BME280;70270;43.434;28.338;2023-08-30T13:00:41;99098.81;;;31.22;55.66
80853;BME280;70270;43.434;28.338;2023-08-30T13:03:27;99093.19;;;30.75;55.98
80853;BME280;70270;43.434;28.338;2023-08-30T13:06:15;99101.97;;;30.73;55.41
80853;BME280;70270;43.434;28.338;2023-08-30T13:09:00;99092.03;;;30.76;56.20
80853;BME280;70270;43.434;28.338;2023-08-30T13:11:44;99106.81;;;30.60;57.20
80853;BME280;70270;43.434;28.338;2023-08-30T13:14:32;99032.81;;;29.87;58.31
80853;BME280;70270;43.434;28.338;2023-08-30T13:17:17;99026.56;;;29.65;58.31
80853;BME280;70270;43.434;28.338;2023-08-30T13:20:02;99087.91;;;30.85;55.76
80853;BME280;70270;43.434;28.338;2023-08-30T13:22:47;99091.31;;;30.79;54.52
80853;BME280;70270;43.434;28.338;2023-08-30T13:25:38;99092.75;;;30.73;56.95
80853;BME280;70270;43.434;28.338;2023-08-30T13:28:23;99081.81;;;30.67;56.19
80853;BME280;70270;43.434;28.338;2023-08-30T13:31:08;99098.97;;;30.82;55.38
80853;BME280;70270;43.434;28.338;2023-08-30T13:33:56;99091.03;;;30.84;55.53
80853;BME280;70270;43.434;28.338;2023-08-30T13:36:42;99086.25;;;30.69;55.79
80853;BME280;70270;43.434;28.338;2023-08-30T13:39:27;99069.09;;;30.70;55.44
80853;BME280;70270;43.434;28.338;2023-08-30T13:42:12;99095.72;;;30.80;55.43
80853;BME280;70270;43.434;28.338;2023-08-30T13:44:57;99048.50;;;30.47;56.93
80853;BME280;70270;43.434;28.338;2023-08-30T13:47:44;99070.91;;;30.62;56.70
80853;BME280;70270;43.434;28.338;2023-08-30T13:50:29;99073.94;;;30.57;57.67
80853;BME280;70270;43.434;28.338;2023-08-30T13:53:18;99041.28;;;30.61;57.41
80853;BME280;70270;43.434;28.338;2023-08-30T13:56:03;99061.16;;;30.72;57.37
80853;BME280;70270;43.434;28.338;2023-08-30T13:58:50;99049.25;;;30.59;57.20
80853;BME280;70270;43.434;28.338;2023-08-30T14:01:34;99046.91;;;30.93;55.87
80853;BME280;70270;43.434;28.338;2023-08-30T14:04:20;99044.38;;;30.88;55.51
80853;BME280;70270;43.434;28.338;2023-08-30T14:07:05;99055.25;;;31.05;54.58
80853;BME280;70270;43.434;28.338;2023-08-30T14:09:49;99055.66;;;30.60;55.83
80853;BME280;70270;43.434;28.338;2023-08-30T14:12:35;99042.03;;;30.90;55.11
80853;BME280;70270;43.434;28.338;2023-08-30T14:15:19;99038.38;;;31.36;54.68
80853;BME280;70270;43.434;28.338;2023-08-30T14:18:04;99050.25;;;31.65;54.22
80853;BME280;70270;43.434;28.338;2023-08-30T14:20:49;99044.38;;;31.19;54.97
80853;BME280;70270;43.434;28.338;2023-08-30T14:23:34;98993.59;;;31.01;55.40
80853;BME280;70270;43.434;28.338;2023-08-30T14:26:25;99050.53;;;31.09;54.30
80853;BME280;70270;43.434;28.338;2023-08-30T14:29:10;99040.88;;;31.06;55.33
80853;BME280;70270;43.434;28.338;2023-08-30T14:31:54;99036.81;;;31.04;56.37
80853;BME280;70270;43.434;28.338;2023-08-30T14:34:39;99040.94;;;30.79;58.01
80853;BME280;70270;43.434;28.338;2023-08-30T14:37:24;99036.25;;;30.67;57.69